sensor_id;sensor_type;location;lat;lon;timestamp;temperature;humidity
38488;DHT22;57384;51.986;4.458;2023-04-24T00:02:02;12.70;71.40
38488;DHT22;57384;51.986;4.458;2023-04-24T00:04:46;12.70;71.50
38488;DHT22;57384;51.986;4.458;2023-04-24T00:07:31;12.70;71.60
38488;DHT22;57384;51.986;4.458;2023-04-24T00:10:15;12.70;71.60
38488;DHT22;57384;51.986;4.458;2023-04-24T00:12:59;12.50;71.60
38488;DHT22;57384;51.986;4.458;2023-04-24T00:15:44;12.60;71.70
38488;DHT22;57384;51.986;4.458;2023-04-24T00:18:28;12.60;71.80
38488;DHT22;57384;51.986;4.458;2023-04-24T00:21:12;12.60;71.80
38488;DHT22;57384;51.986;4.458;2023-04-24T00:23:56;12.60;71.80
38488;DHT22;57384;51.986;4.458;2023-04-24T00:26:40;12.60;71.80
38488;DHT22;57384;51.986;4.458;2023-04-24T00:29:27;12.60;71.80
38488;DHT22;57384;51.986;4.458;2023-04-24T00:32:11;12.60;71.90
38488;DHT22;57384;51.986;4.458;2023-04-24T00:34:55;12.50;71.80
38488;DHT22;57384;51.986;4.458;2023-04-24T00:37:40;12.50;71.90
38488;DHT22;57384;51.986;4.458;2023-04-24T00:40:24;12.50;71.90
38488;DHT22;57384;51.986;4.458;2023-04-24T00:43:09;12.50;71.90
38488;DHT22;57384;51.986;4.458;2023-04-24T00:45:53;12.50;72.00
38488;DHT22;57384;51.986;4.458;2023-04-24T00:48:39;12.40;72.00
38488;DHT22;57384;51.986;4.458;2023-04-24T00:51:23;12.50;72.10
38488;DHT22;57384;51.986;4.458;2023-04-24T00:54:08;12.50;72.00
38488;DHT22;57384;51.986;4.458;2023-04-24T00:56:52;12.40;72.00
38488;DHT22;57384;51.986;4.458;2023-04-24T00:59:37;12.50;72.10
38488;DHT22;57384;51.986;4.458;2023-04-24T01:02:22;12.40;72.10
38488;DHT22;57384;51.986;4.458;2023-04-24T01:05:07;12.40;72.10
38488;DHT22;57384;51.986;4.458;2023-04-24T01:07:52;12.40;72.20
38488;DHT22;57384;51.986;4.458;2023-04-24T01:10:36;12.40;72.10
38488;DHT22;57384;51.986;4.458;2023-04-24T01:13:22;12.40;72.10
38488;DHT22;57384;51.986;4.458;2023-04-24T01:16:06;12.40;72.10
38488;DHT22;57384;51.986;4.458;2023-04-24T01:18:50;12.40;72.20
38488;DHT22;57384;51.986;4.458;2023-04-24T01:21:36;12.40;72.20
38488;DHT22;57384;51.986;4.458;2023-04-24T01:24:21;12.30;72.20
38488;DHT22;57384;51.986;4.458;2023-04-24T01:27:05;12.30;72.10
38488;DHT22;57384;51.986;4.458;2023-04-24T01:29:49;12.30;72.10
38488;DHT22;57384;51.986;4.458;2023-04-24T01:32:34;12.30;72.20
38488;DHT22;57384;51.986;4.458;2023-04-24T01:35:19;12.30;72.20
38488;DHT22;57384;51.986;4.458;2023-04-24T01:38:04;12.30;72.20
38488;DHT22;57384;51.986;4.458;2023-04-24T01:40:49;12.30;72.20
38488;DHT22;57384;51.986;4.458;2023-04-24T01:43:34;12.30;72.20
38488;DHT22;57384;51.986;4.458;2023-04-24T01:46:18;12.30;72.30
38488;DHT22;57384;51.986;4.458;2023-04-24T01:49:02;12.20;72.20
38488;DHT22;57384;51.986;4.458;2023-04-24T01:51:46;12.30;72.30
38488;DHT22;57384;51.986;4.458;2023-04-24T01:54:31;12.20;72.20
38488;DHT22;57384;51.986;4.458;2023-04-24T01:57:16;12.20;72.20
38488;DHT22;57384;51.986;4.458;2023-04-24T02:00:00;12.20;72.30
38488;DHT22;57384;51.986;4.458;2023-04-24T02:02:47;12.20;72.40
38488;DHT22;57384;51.986;4.458;2023-04-24T02:05:32;12.20;72.50
38488;DHT22;57384;51.986;4.458;2023-04-24T02:08:19;12.10;72.30
38488;DHT22;57384;51.986;4.458;2023-04-24T02:11:03;12.10;72.40
38488;DHT22;57384;51.986;4.458;2023-04-24T02:13:47;12.10;72.30
38488;DHT22;57384;51.986;4.458;2023-04-24T02:16:31;12.10;72.30
38488;DHT22;57384;51.986;4.458;2023-04-24T02:19:15;12.10;72.30
38488;DHT22;57384;51.986;4.458;2023-04-24T02:21:59;12.10;72.40
38488;DHT22;57384;51.986;4.458;2023-04-24T02:24:43;12.00;72.40
38488;DHT22;57384;51.986;4.458;2023-04-24T02:27:27;12.10;72.40
38488;DHT22;57384;51.986;4.458;2023-04-24T02:30:11;12.00;72.50
38488;DHT22;57384;51.986;4.458;2023-04-24T02:32:55;12.10;72.70
38488;DHT22;57384;51.986;4.458;2023-04-24T02:35:39;12.00;72.50
38488;DHT22;57384;51.986;4.458;2023-04-24T02:38:23;12.00;72.40
38488;DHT22;57384;51.986;4.458;2023-04-24T02:41:08;12.00;72.40
38488;DHT22;57384;51.986;4.458;2023-04-24T02:43:52;12.00;72.40
38488;DHT22;57384;51.986;4.458;2023-04-24T02:46:36;12.00;72.30
38488;DHT22;57384;51.986;4.458;2023-04-24T02:49:20;12.00;72.30
38488;DHT22;57384;51.986;4.458;2023-04-24T02:52:04;11.90;72.30
38488;DHT22;57384;51.986;4.458;2023-04-24T02:54:48;12.00;72.30
38488;DHT22;57384;51.986;4.458;2023-04-24T02:57:32;11.90;72.20
38488;DHT22;57384;51.986;4.458;2023-04-24T03:00:16;11.90;72.20
38488;DHT22;57384;51.986;4.458;2023-04-24T03:03:00;11.90;72.20
38488;DHT22;57384;51.986;4.458;2023-04-24T03:05:44;11.90;72.20
38488;DHT22;57384;51.986;4.458;2023-04-24T03:08:28;11.90;72.30
38488;DHT22;57384;51.986;4.458;2023-04-24T03:11:12;11.90;72.30
38488;DHT22;57384;51.986;4.458;2023-04-24T03:13:56;11.90;72.30
38488;DHT22;57384;51.986;4.458;2023-04-24T03:16:40;11.90;72.40
38488;DHT22;57384;51.986;4.458;2023-04-24T03:19:24;11.80;72.30
38488;DHT22;57384;51.986;4.458;2023-04-24T03:22:08;11.80;72.30
38488;DHT22;57384;51.986;4.458;2023-04-24T03:24:52;11.80;72.30
38488;DHT22;57384;51.986;4.458;2023-04-24T03:27:36;11.80;72.40
38488;DHT22;57384;51.986;4.458;2023-04-24T03:30:21;11.80;72.40
38488;DHT22;57384;51.986;4.458;2023-04-24T03:33:05;11.80;72.50
38488;DHT22;57384;51.986;4.458;2023-04-24T03:35:49;11.80;72.60
38488;DHT22;57384;51.986;4.458;2023-04-24T03:38:33;11.80;72.60
38488;DHT22;57384;51.986;4.458;2023-04-24T03:41:17;11.80;72.70
38488;DHT22;57384;51.986;4.458;2023-04-24T03:44:01;11.80;72.80
38488;DHT22;57384;51.986;4.458;2023-04-24T03:46:45;11.80;72.90
38488;DHT22;57384;51.986;4.458;2023-04-24T03:49:29;11.80;72.90
38488;DHT22;57384;51.986;4.458;2023-04-24T03:52:14;11.80;72.90
38488;DHT22;57384;51.986;4.458;2023-04-24T03:54:58;11.70;72.80
38488;DHT22;57384;51.986;4.458;2023-04-24T03:57:42;11.70;72.80
38488;DHT22;57384;51.986;4.458;2023-04-24T04:00:26;11.70;72.90
38488;DHT22;57384;51.986;4.458;2023-04-24T04:03:10;11.70;72.80
38488;DHT22;57384;51.986;4.458;2023-04-24T04:05:55;11.70;72.90
38488;DHT22;57384;51.986;4.458;2023-04-24T04:08:39;11.70;72.90
38488;DHT22;57384;51.986;4.458;2023-04-24T04:11:23;11.70;72.90
38488;DHT22;57384;51.986;4.458;2023-04-24T04:14:07;11.70;72.80
38488;DHT22;57384;51.986;4.458;2023-04-24T04:16:52;11.60;72.70
38488;DHT22;57384;51.986;4.458;2023-04-24T04:19:38;11.60;72.80
38488;DHT22;57384;51.986;4.458;2023-04-24T04:22:23;11.60;72.60
38488;DHT22;57384;51.986;4.458;2023-04-24T04:25:07;11.60;72.30
38488;DHT22;57384;51.986;4.458;2023-04-24T04:27:51;11.60;72.20
38488;DHT22;57384;51.986;4.458;2023-04-24T04:30:36;11.60;72.80
38488;DHT22;57384;51.986;4.458;2023-04-24T04:33:21;11.60;72.20
38488;DHT22;57384;51.986;4.458;2023-04-24T04:36:05;11.60;72.10
38488;DHT22;57384;51.986;4.458;2023-04-24T04:38:49;11.60;72.20
38488;DHT22;57384;51.986;4.458;2023-04-24T04:41:33;11.60;72.20
38488;DHT22;57384;51.986;4.458;2023-04-24T04:44:18;11.60;72.30
38488;DHT22;57384;51.986;4.458;2023-04-24T04:47:02;11.60;72.30
38488;DHT22;57384;51.986;4.458;2023-04-24T04:49:46;11.50;72.20
38488;DHT22;57384;51.986;4.458;2023-04-24T04:52:31;11.50;72.20
38488;DHT22;57384;51.986;4.458;2023-04-24T04:55:15;11.50;72.20
38488;DHT22;57384;51.986;4.458;2023-04-24T04:57:59;11.50;72.30
38488;DHT22;57384;51.986;4.458;2023-04-24T05:00:43;11.50;72.40
38488;DHT22;57384;51.986;4.458;2023-04-24T05:03:27;11.50;72.40
38488;DHT22;57384;51.986;4.458;2023-04-24T05:06:11;11.50;72.50
38488;DHT22;57384;51.986;4.458;2023-04-24T05:08:55;11.50;72.50
38488;DHT22;57384;51.986;4.458;2023-04-24T05:11:46;11.50;72.60
38488;DHT22;57384;51.986;4.458;2023-04-24T05:14:30;11.50;72.80
38488;DHT22;57384;51.986;4.458;2023-04-24T05:17:14;11.50;72.60
38488;DHT22;57384;51.986;4.458;2023-04-24T05:19:58;11.40;72.70
38488;DHT22;57384;51.986;4.458;2023-04-24T05:22:42;11.50;72.70
38488;DHT22;57384;51.986;4.458;2023-04-24T05:25:26;11.40;72.70
38488;DHT22;57384;51.986;4.458;2023-04-24T05:28:11;11.40;72.80
38488;DHT22;57384;51.986;4.458;2023-04-24T05:30:55;11.40;72.80
38488;DHT22;57384;51.986;4.458;2023-04-24T05:33:39;11.40;72.80
38488;DHT22;57384;51.986;4.458;2023-04-24T05:36:24;11.40;72.80
38488;DHT22;57384;51.986;4.458;2023-04-24T05:39:21;11.30;72.80
38488;DHT22;57384;51.986;4.458;2023-04-24T05:42:09;11.40;73.00
38488;DHT22;57384;51.986;4.458;2023-04-24T05:44:57;11.40;73.00
38488;DHT22;57384;51.986;4.458;2023-04-24T05:47:43;11.30;72.90
38488;DHT22;57384;51.986;4.458;2023-04-24T05:50:28;11.30;72.80
38488;DHT22;57384;51.986;4.458;2023-04-24T05:53:12;11.30;73.00
38488;DHT22;57384;51.986;4.458;2023-04-24T05:55:56;11.30;73.00
38488;DHT22;57384;51.986;4.458;2023-04-24T05:58:40;11.20;73.00
38488;DHT22;57384;51.986;4.458;2023-04-24T06:01:24;11.20;73.50
38488;DHT22;57384;51.986;4.458;2023-04-24T06:04:08;11.20;73.00
38488;DHT22;57384;51.986;4.458;2023-04-24T06:06:52;11.20;73.00
38488;DHT22;57384;51.986;4.458;2023-04-24T06:09:36;11.20;73.10
38488;DHT22;57384;51.986;4.458;2023-04-24T06:12:21;11.20;73.20
38488;DHT22;57384;51.986;4.458;2023-04-24T06:15:05;11.20;73.20
38488;DHT22;57384;51.986;4.458;2023-04-24T06:17:50;11.20;73.20
38488;DHT22;57384;51.986;4.458;2023-04-24T06:20:34;11.20;73.30
38488;DHT22;57384;51.986;4.458;2023-04-24T06:23:18;11.20;73.30
38488;DHT22;57384;51.986;4.458;2023-04-24T06:26:02;11.10;73.30
38488;DHT22;57384;51.986;4.458;2023-04-24T06:28:46;11.20;73.40
38488;DHT22;57384;51.986;4.458;2023-04-24T06:31:32;11.10;73.40
38488;DHT22;57384;51.986;4.458;2023-04-24T06:34:16;11.10;73.40
38488;DHT22;57384;51.986;4.458;2023-04-24T06:37:04;11.10;73.40
38488;DHT22;57384;51.986;4.458;2023-04-24T06:39:50;11.10;73.40
38488;DHT22;57384;51.986;4.458;2023-04-24T06:42:35;11.10;73.50
38488;DHT22;57384;51.986;4.458;2023-04-24T06:45:20;11.10;73.60
38488;DHT22;57384;51.986;4.458;2023-04-24T06:48:10;11.10;73.60
38488;DHT22;57384;51.986;4.458;2023-04-24T06:50:57;11.10;73.50
38488;DHT22;57384;51.986;4.458;2023-04-24T06:53:42;11.00;73.50
38488;DHT22;57384;51.986;4.458;2023-04-24T06:56:26;11.10;73.60
38488;DHT22;57384;51.986;4.458;2023-04-24T06:59:10;11.10;73.70
38488;DHT22;57384;51.986;4.458;2023-04-24T07:01:57;11.10;73.70
38488;DHT22;57384;51.986;4.458;2023-04-24T07:04:41;11.00;73.70
38488;DHT22;57384;51.986;4.458;2023-04-24T07:07:25;11.00;73.80
38488;DHT22;57384;51.986;4.458;2023-04-24T07:10:09;11.00;73.70
38488;DHT22;57384;51.986;4.458;2023-04-24T07:12:54;11.00;73.70
38488;DHT22;57384;51.986;4.458;2023-04-24T07:15:42;11.00;73.70
38488;DHT22;57384;51.986;4.458;2023-04-24T07:18:30;11.00;73.80
38488;DHT22;57384;51.986;4.458;2023-04-24T07:21:21;11.00;73.70
38488;DHT22;57384;51.986;4.458;2023-04-24T07:24:06;11.00;73.80
38488;DHT22;57384;51.986;4.458;2023-04-24T07:26:54;11.00;73.80
38488;DHT22;57384;51.986;4.458;2023-04-24T07:29:38;11.00;73.90
38488;DHT22;57384;51.986;4.458;2023-04-24T07:32:22;11.00;73.90
38488;DHT22;57384;51.986;4.458;2023-04-24T07:35:06;10.90;73.80
38488;DHT22;57384;51.986;4.458;2023-04-24T07:37:53;11.00;73.90
38488;DHT22;57384;51.986;4.458;2023-04-24T07:40:37;11.00;73.90
38488;DHT22;57384;51.986;4.458;2023-04-24T07:43:22;11.00;73.90
38488;DHT22;57384;51.986;4.458;2023-04-24T07:46:07;11.00;73.90
38488;DHT22;57384;51.986;4.458;2023-04-24T07:48:52;10.90;73.90
38488;DHT22;57384;51.986;4.458;2023-04-24T07:51:38;10.90;73.90
38488;DHT22;57384;51.986;4.458;2023-04-24T07:54:23;10.90;73.90
38488;DHT22;57384;51.986;4.458;2023-04-24T07:57:07;10.90;73.90
38488;DHT22;57384;51.986;4.458;2023-04-24T07:59:51;10.90;73.90
38488;DHT22;57384;51.986;4.458;2023-04-24T08:02:41;10.90;74.00
38488;DHT22;57384;51.986;4.458;2023-04-24T08:05:25;10.90;74.00
38488;DHT22;57384;51.986;4.458;2023-04-24T08:08:15;10.90;73.90
38488;DHT22;57384;51.986;4.458;2023-04-24T08:10:59;10.90;73.90
38488;DHT22;57384;51.986;4.458;2023-04-24T08:13:43;10.90;73.80
38488;DHT22;57384;51.986;4.458;2023-04-24T08:16:27;10.90;73.70
38488;DHT22;57384;51.986;4.458;2023-04-24T08:19:12;10.90;73.70
38488;DHT22;57384;51.986;4.458;2023-04-24T08:22:59;10.90;73.60
38488;DHT22;57384;51.986;4.458;2023-04-24T08:25:12;10.90;73.60
38488;DHT22;57384;51.986;4.458;2023-04-24T08:27:57;10.80;73.50
38488;DHT22;57384;51.986;4.458;2023-04-24T08:30:41;10.90;73.60
38488;DHT22;57384;51.986;4.458;2023-04-24T08:33:25;10.90;73.50
38488;DHT22;57384;51.986;4.458;2023-04-24T08:36:09;10.80;73.40
38488;DHT22;57384;51.986;4.458;2023-04-24T08:38:53;10.80;73.40
38488;DHT22;57384;51.986;4.458;2023-04-24T08:41:39;10.90;73.40
38488;DHT22;57384;51.986;4.458;2023-04-24T08:44:24;10.90;73.40
38488;DHT22;57384;51.986;4.458;2023-04-24T08:47:08;10.90;73.30
38488;DHT22;57384;51.986;4.458;2023-04-24T08:49:53;10.90;73.30
38488;DHT22;57384;51.986;4.458;2023-04-24T08:52:38;10.90;73.30
38488;DHT22;57384;51.986;4.458;2023-04-24T08:55:22;10.90;73.20
38488;DHT22;57384;51.986;4.458;2023-04-24T08:58:10;10.80;73.10
38488;DHT22;57384;51.986;4.458;2023-04-24T09:00:55;10.90;73.10
38488;DHT22;57384;51.986;4.458;2023-04-24T09:03:40;10.90;73.00
38488;DHT22;57384;51.986;4.458;2023-04-24T09:06:24;10.80;72.90
38488;DHT22;57384;51.986;4.458;2023-04-24T09:09:10;10.90;73.00
38488;DHT22;57384;51.986;4.458;2023-04-24T09:11:57;10.80;72.90
38488;DHT22;57384;51.986;4.458;2023-04-24T09:14:45;10.90;72.90
38488;DHT22;57384;51.986;4.458;2023-04-24T09:17:36;10.90;72.90
38488;DHT22;57384;51.986;4.458;2023-04-24T09:20:26;10.80;72.80
38488;DHT22;57384;51.986;4.458;2023-04-24T09:23:17;10.80;72.90
38488;DHT22;57384;51.986;4.458;2023-04-24T09:26:11;10.90;73.00
38488;DHT22;57384;51.986;4.458;2023-04-24T09:28:55;10.90;72.90
38488;DHT22;57384;51.986;4.458;2023-04-24T09:31:40;10.90;72.90
38488;DHT22;57384;51.986;4.458;2023-04-24T09:34:27;10.90;72.80
38488;DHT22;57384;51.986;4.458;2023-04-24T09:37:35;11.00;72.90
38488;DHT22;57384;51.986;4.458;2023-04-24T09:40:23;11.00;73.00
38488;DHT22;57384;51.986;4.458;2023-04-24T09:43:13;11.00;72.90
38488;DHT22;57384;51.986;4.458;2023-04-24T09:46:07;11.10;72.90
38488;DHT22;57384;51.986;4.458;2023-04-24T09:48:52;11.20;73.00
38488;DHT22;57384;51.986;4.458;2023-04-24T09:51:43;11.20;72.90
38488;DHT22;57384;51.986;4.458;2023-04-24T09:54:28;11.20;72.90
38488;DHT22;57384;51.986;4.458;2023-04-24T09:57:14;11.30;72.80
38488;DHT22;57384;51.986;4.458;2023-04-24T10:00:04;11.30;72.80
38488;DHT22;57384;51.986;4.458;2023-04-24T10:03:09;11.30;72.70
38488;DHT22;57384;51.986;4.458;2023-04-24T10:06:00;11.40;72.70
38488;DHT22;57384;51.986;4.458;2023-04-24T10:08:53;11.40;72.70
38488;DHT22;57384;51.986;4.458;2023-04-24T10:11:48;11.40;72.70
38488;DHT22;57384;51.986;4.458;2023-04-24T10:14:33;11.40;72.60
38488;DHT22;57384;51.986;4.458;2023-04-24T10:17:24;11.40;72.50
38488;DHT22;57384;51.986;4.458;2023-04-24T10:20:12;11.50;72.60
38488;DHT22;57384;51.986;4.458;2023-04-24T10:22:59;11.50;72.50
38488;DHT22;57384;51.986;4.458;2023-04-24T10:25:44;11.50;72.50
38488;DHT22;57384;51.986;4.458;2023-04-24T10:28:53;11.60;72.50
38488;DHT22;57384;51.986;4.458;2023-04-24T10:31:37;11.60;72.40
38488;DHT22;57384;51.986;4.458;2023-04-24T10:34:24;11.60;72.40
38488;DHT22;57384;51.986;4.458;2023-04-24T10:37:12;11.60;72.40
38488;DHT22;57384;51.986;4.458;2023-04-24T10:40:21;11.70;72.40
38488;DHT22;57384;51.986;4.458;2023-04-24T10:43:24;11.70;72.40
38488;DHT22;57384;51.986;4.458;2023-04-24T10:46:09;11.70;72.30
38488;DHT22;57384;51.986;4.458;2023-04-24T10:48:54;11.70;72.30
38488;DHT22;57384;51.986;4.458;2023-04-24T10:51:59;11.80;72.30
38488;DHT22;57384;51.986;4.458;2023-04-24T10:54:45;11.80;72.40
38488;DHT22;57384;51.986;4.458;2023-04-24T10:57:29;11.80;72.30
38488;DHT22;57384;51.986;4.458;2023-04-24T11:00:20;11.90;72.30
38488;DHT22;57384;51.986;4.458;2023-04-24T11:03:28;11.90;72.30
38488;DHT22;57384;51.986;4.458;2023-04-24T11:06:12;12.00;72.20
38488;DHT22;57384;51.986;4.458;2023-04-24T11:09:08;12.00;72.20
38488;DHT22;57384;51.986;4.458;2023-04-24T11:12:06;12.20;72.10
38488;DHT22;57384;51.986;4.458;2023-04-24T11:17:42;12.20;72.00
38488;DHT22;57384;51.986;4.458;2023-04-24T11:20:26;12.30;71.90
38488;DHT22;57384;51.986;4.458;2023-04-24T11:23:14;12.30;71.80
38488;DHT22;57384;51.986;4.458;2023-04-24T11:26:21;12.40;71.80
38488;DHT22;57384;51.986;4.458;2023-04-24T11:29:08;12.50;71.60
38488;DHT22;57384;51.986;4.458;2023-04-24T11:31:55;12.60;71.50
38488;DHT22;57384;51.986;4.458;2023-04-24T11:34:39;12.60;71.40
38488;DHT22;57384;51.986;4.458;2023-04-24T11:37:46;12.70;71.20
38488;DHT22;57384;51.986;4.458;2023-04-24T11:40:30;12.70;71.10
38488;DHT22;57384;51.986;4.458;2023-04-24T11:43:14;12.80;71.00
38488;DHT22;57384;51.986;4.458;2023-04-24T11:46:00;12.90;71.00
38488;DHT22;57384;51.986;4.458;2023-04-24T11:48:47;13.00;70.80
38488;DHT22;57384;51.986;4.458;2023-04-24T11:51:31;13.00;70.70
38488;DHT22;57384;51.986;4.458;2023-04-24T11:54:15;13.10;70.60
38488;DHT22;57384;51.986;4.458;2023-04-24T11:57:04;13.10;70.40
38488;DHT22;57384;51.986;4.458;2023-04-24T11:59:49;13.20;70.20
38488;DHT22;57384;51.986;4.458;2023-04-24T12:02:34;13.40;70.30
38488;DHT22;57384;51.986;4.458;2023-04-24T12:05:22;13.40;70.20
38488;DHT22;57384;51.986;4.458;2023-04-24T12:08:06;13.50;70.00
38488;DHT22;57384;51.986;4.458;2023-04-24T12:10:51;13.60;69.90
38488;DHT22;57384;51.986;4.458;2023-04-24T12:13:38;13.70;69.70
38488;DHT22;57384;51.986;4.458;2023-04-24T12:16:23;13.80;69.70
38488;DHT22;57384;51.986;4.458;2023-04-24T12:19:09;13.80;69.50
38488;DHT22;57384;51.986;4.458;2023-04-24T12:22:23;13.80;69.50
38488;DHT22;57384;51.986;4.458;2023-04-24T12:25:10;13.90;69.60
38488;DHT22;57384;51.986;4.458;2023-04-24T12:28:08;13.80;69.60
38488;DHT22;57384;51.986;4.458;2023-04-24T12:30:53;13.90;69.60
38488;DHT22;57384;51.986;4.458;2023-04-24T12:33:37;13.80;69.70
38488;DHT22;57384;51.986;4.458;2023-04-24T12:36:21;13.90;70.00
38488;DHT22;57384;51.986;4.458;2023-04-24T12:39:17;13.90;70.00
38488;DHT22;57384;51.986;4.458;2023-04-24T12:42:07;14.00;70.00
38488;DHT22;57384;51.986;4.458;2023-04-24T12:44:57;14.00;69.70
38488;DHT22;57384;51.986;4.458;2023-04-24T12:47:42;14.10;69.70
38488;DHT22;57384;51.986;4.458;2023-04-24T12:50:26;14.10;69.40
38488;DHT22;57384;51.986;4.458;2023-04-24T12:53:10;14.10;69.30
38488;DHT22;57384;51.986;4.458;2023-04-24T12:55:54;14.20;69.10
38488;DHT22;57384;51.986;4.458;2023-04-24T12:58:39;14.20;69.00
38488;DHT22;57384;51.986;4.458;2023-04-24T13:01:27;14.20;68.90
38488;DHT22;57384;51.986;4.458;2023-04-24T13:04:11;14.30;68.70
38488;DHT22;57384;51.986;4.458;2023-04-24T13:06:55;14.30;69.00
38488;DHT22;57384;51.986;4.458;2023-04-24T13:09:43;14.30;68.40
38488;DHT22;57384;51.986;4.458;2023-04-24T13:12:28;14.30;68.20
38488;DHT22;57384;51.986;4.458;2023-04-24T13:15:12;14.30;68.00
38488;DHT22;57384;51.986;4.458;2023-04-24T13:18:05;14.20;67.60
38488;DHT22;57384;51.986;4.458;2023-04-24T13:20:50;14.30;67.50
38488;DHT22;57384;51.986;4.458;2023-04-24T13:23:34;14.10;67.40
38488;DHT22;57384;51.986;4.458;2023-04-24T13:26:18;14.10;67.50
38488;DHT22;57384;51.986;4.458;2023-04-24T13:29:02;14.20;67.50
38488;DHT22;57384;51.986;4.458;2023-04-24T13:31:47;14.20;67.40
38488;DHT22;57384;51.986;4.458;2023-04-24T13:34:31;14.20;67.20
38488;DHT22;57384;51.986;4.458;2023-04-24T13:37:16;14.30;67.10
38488;DHT22;57384;51.986;4.458;2023-04-24T13:40:02;14.40;66.80
38488;DHT22;57384;51.986;4.458;2023-04-24T13:42:46;14.50;66.30
38488;DHT22;57384;51.986;4.458;2023-04-24T13:45:37;14.60;66.10
38488;DHT22;57384;51.986;4.458;2023-04-24T13:48:21;14.60;65.80
38488;DHT22;57384;51.986;4.458;2023-04-24T13:51:05;14.70;65.80
38488;DHT22;57384;51.986;4.458;2023-04-24T13:53:49;14.80;65.70
38488;DHT22;57384;51.986;4.458;2023-04-24T13:56:34;14.90;65.40
38488;DHT22;57384;51.986;4.458;2023-04-24T13:59:19;14.90;65.10
38488;DHT22;57384;51.986;4.458;2023-04-24T14:02:04;15.00;65.00
38488;DHT22;57384;51.986;4.458;2023-04-24T14:04:54;15.00;64.60
38488;DHT22;57384;51.986;4.458;2023-04-24T14:07:38;15.10;64.40
38488;DHT22;57384;51.986;4.458;2023-04-24T14:10:22;15.10;64.40
38488;DHT22;57384;51.986;4.458;2023-04-24T14:13:06;15.20;64.30
38488;DHT22;57384;51.986;4.458;2023-04-24T14:15:51;15.20;64.10
38488;DHT22;57384;51.986;4.458;2023-04-24T14:18:35;15.20;64.00
38488;DHT22;57384;51.986;4.458;2023-04-24T14:21:20;15.20;63.80
38488;DHT22;57384;51.986;4.458;2023-04-24T14:24:04;15.20;63.70
38488;DHT22;57384;51.986;4.458;2023-04-24T14:26:51;15.20;63.60
38488;DHT22;57384;51.986;4.458;2023-04-24T14:29:35;15.10;63.40
38488;DHT22;57384;51.986;4.458;2023-04-24T14:32:19;15.10;63.40
38488;DHT22;57384;51.986;4.458;2023-04-24T14:35:22;15.00;63.30
38488;DHT22;57384;51.986;4.458;2023-04-24T14:38:06;14.90;63.20
38488;DHT22;57384;51.986;4.458;2023-04-24T14:40:52;14.90;63.30
38488;DHT22;57384;51.986;4.458;2023-04-24T14:43:37;14.80;63.20
38488;DHT22;57384;51.986;4.458;2023-04-24T14:46:24;14.80;63.10
38488;DHT22;57384;51.986;4.458;2023-04-24T14:49:09;14.80;63.10
38488;DHT22;57384;51.986;4.458;2023-04-24T14:51:53;14.70;63.20
38488;DHT22;57384;51.986;4.458;2023-04-24T14:54:37;14.70;63.20
38488;DHT22;57384;51.986;4.458;2023-04-24T14:57:22;14.70;63.10
38488;DHT22;57384;51.986;4.458;2023-04-24T15:00:07;14.70;63.10
38488;DHT22;57384;51.986;4.458;2023-04-24T15:02:52;14.70;63.10
38488;DHT22;57384;51.986;4.458;2023-04-24T15:05:36;14.70;63.10
38488;DHT22;57384;51.986;4.458;2023-04-24T15:08:20;14.70;63.00
38488;DHT22;57384;51.986;4.458;2023-04-24T15:11:18;14.70;62.90
38488;DHT22;57384;51.986;4.458;2023-04-24T15:14:02;14.70;62.70
38488;DHT22;57384;51.986;4.458;2023-04-24T15:16:46;14.60;62.80
38488;DHT22;57384;51.986;4.458;2023-04-24T15:19:31;14.60;62.60
38488;DHT22;57384;51.986;4.458;2023-04-24T15:22:15;14.60;62.60
38488;DHT22;57384;51.986;4.458;2023-04-24T15:24:59;14.60;62.60
38488;DHT22;57384;51.986;4.458;2023-04-24T15:27:44;14.50;62.70
38488;DHT22;57384;51.986;4.458;2023-04-24T15:30:29;14.50;62.70
38488;DHT22;57384;51.986;4.458;2023-04-24T15:33:16;14.50;62.60
38488;DHT22;57384;51.986;4.458;2023-04-24T15:36:00;14.40;62.50
38488;DHT22;57384;51.986;4.458;2023-04-24T15:38:44;14.40;62.40
38488;DHT22;57384;51.986;4.458;2023-04-24T15:41:29;14.30;62.30
38488;DHT22;57384;51.986;4.458;2023-04-24T15:44:13;14.30;62.30
38488;DHT22;57384;51.986;4.458;2023-04-24T15:47:01;14.30;62.30
38488;DHT22;57384;51.986;4.458;2023-04-24T15:49:45;14.20;62.40
38488;DHT22;57384;51.986;4.458;2023-04-24T15:52:29;14.20;62.50
38488;DHT22;57384;51.986;4.458;2023-04-24T15:55:13;14.10;62.50
38488;DHT22;57384;51.986;4.458;2023-04-24T15:58:00;14.10;62.50
38488;DHT22;57384;51.986;4.458;2023-04-24T16:00:44;14.00;62.50
38488;DHT22;57384;51.986;4.458;2023-04-24T16:03:29;14.00;62.70
38488;DHT22;57384;51.986;4.458;2023-04-24T16:06:13;13.90;62.70
38488;DHT22;57384;51.986;4.458;2023-04-24T16:08:57;13.90;62.70
38488;DHT22;57384;51.986;4.458;2023-04-24T16:11:41;13.90;62.60
38488;DHT22;57384;51.986;4.458;2023-04-24T16:14:25;13.80;62.50
38488;DHT22;57384;51.986;4.458;2023-04-24T16:17:10;13.80;62.30
38488;DHT22;57384;51.986;4.458;2023-04-24T16:20:03;13.70;62.20
38488;DHT22;57384;51.986;4.458;2023-04-24T16:23:00;13.70;62.30
38488;DHT22;57384;51.986;4.458;2023-04-24T16:25:44;13.70;62.20
38488;DHT22;57384;51.986;4.458;2023-04-24T16:28:29;13.60;62.20
38488;DHT22;57384;51.986;4.458;2023-04-24T16:31:14;13.60;62.30
38488;DHT22;57384;51.986;4.458;2023-04-24T16:33:58;13.50;62.30
38488;DHT22;57384;51.986;4.458;2023-04-24T16:36:44;13.50;62.30
38488;DHT22;57384;51.986;4.458;2023-04-24T16:39:29;13.50;62.30
38488;DHT22;57384;51.986;4.458;2023-04-24T16:42:14;13.40;62.30
38488;DHT22;57384;51.986;4.458;2023-04-24T16:44:58;13.40;62.20
38488;DHT22;57384;51.986;4.458;2023-04-24T16:47:42;13.30;62.20
38488;DHT22;57384;51.986;4.458;2023-04-24T16:50:26;13.30;62.30
38488;DHT22;57384;51.986;4.458;2023-04-24T16:53:11;13.30;62.30
38488;DHT22;57384;51.986;4.458;2023-04-24T16:55:55;13.20;62.30
38488;DHT22;57384;51.986;4.458;2023-04-24T16:58:39;13.20;62.40
38488;DHT22;57384;51.986;4.458;2023-04-24T17:01:23;13.10;62.40
38488;DHT22;57384;51.986;4.458;2023-04-24T17:04:07;13.10;62.40
38488;DHT22;57384;51.986;4.458;2023-04-24T17:06:51;13.20;62.60
38488;DHT22;57384;51.986;4.458;2023-04-24T17:12:33;13.10;62.60
38488;DHT22;57384;51.986;4.458;2023-04-24T17:15:20;13.00;62.60
38488;DHT22;57384;51.986;4.458;2023-04-24T17:21:26;13.00;62.80
38488;DHT22;57384;51.986;4.458;2023-04-24T17:24:10;12.90;62.70
38488;DHT22;57384;51.986;4.458;2023-04-24T17:26:56;12.90;62.80
38488;DHT22;57384;51.986;4.458;2023-04-24T17:29:41;12.90;62.90
38488;DHT22;57384;51.986;4.458;2023-04-24T17:32:26;12.80;62.80
38488;DHT22;57384;51.986;4.458;2023-04-24T17:35:10;12.80;62.90
38488;DHT22;57384;51.986;4.458;2023-04-24T17:37:54;12.80;62.90